Time;durP1;ratioP1;P1;durP2;ratioP2;P2;SDS_P1;SDS_P2;PMS_P1;PMS_P2;Temp;Humidity;BMP_temperature;BMP_pressure;BME280_temperature;BME280_humidity;BME280_pressure;Samples;Min_cycle;Max_cycle;Signal;HPM_P1;HPM_P2
2023/02/09 00:02:02;;;;;;;0.80;0.80;;;0.70;99.90;;;;;;5054999;28;20199;-77
2023/02/09 00:04:29;;;;;;;1.55;1.45;;;0.80;99.90;;;;;;5054848;28;20226;-78
2023/02/09 00:06:56;;;;;;;0.50;0.50;;;0.80;99.90;;;;;;5054974;28;20224;-76
2023/02/09 00:09:24;;;;;;;3.13;0.85;;;0.80;99.90;;;;;;5054858;28;20223;-76
2023/02/09 00:14:35;;;;;;;4.72;1.73;;;0.80;99.90;;;;;;5054830;28;20293;-76
2023/02/09 00:17:02;;;;;;;0.90;0.90;;;0.80;99.90;;;;;;5055360;28;20281;-77
2023/02/09 00:19:30;;;;;;;1.45;1.35;;;0.80;99.90;;;;;;5055382;28;20256;-76
2023/02/09 00:21:57;;;;;;;0.90;0.90;;;0.90;99.90;;;;;;5055517;28;20735;-76
2023/02/09 00:24:26;;;;;;;0.60;0.60;;;0.90;99.90;;;;;;5054492;28;20286;-76
2023/02/09 00:26:52;;;;;;;1.65;1.50;;;0.80;99.90;;;;;;5055038;28;20278;-76
2023/02/09 00:29:21;;;;;;;2.03;1.92;;;0.80;99.90;;;;;;5054692;28;20191;-76
2023/02/09 00:31:48;;;;;;;3.65;1.60;;;0.80;99.90;;;;;;5055086;28;20189;-76
2023/02/09 00:34:15;;;;;;;0.50;0.50;;;0.90;99.90;;;;;;5054522;28;20201;-76
2023/02/09 00:36:42;;;;;;;0.70;0.70;;;0.80;99.90;;;;;;5054350;28;20191;-76
2023/02/09 00:39:08;;;;;;;7.20;3.05;;;0.80;99.90;;;;;;5054337;28;20650;-76
2023/02/09 00:44:21;;;;;;;0.85;0.85;;;0.80;99.90;;;;;;5054090;28;20283;-76
2023/02/09 00:46:48;;;;;;;1.45;1.45;;;0.70;99.90;;;;;;5054762;28;20571;-76
2023/02/09 00:49:15;;;;;;;0.50;0.50;;;0.80;99.90;;;;;;5054498;28;20567;-76
2023/02/09 00:51:42;;;;;;;1.65;1.55;;;0.70;99.90;;;;;;5054231;28;20197;-76
2023/02/09 00:54:08;;;;;;;0.77;0.77;;;0.80;99.90;;;;;;5052860;28;20194;-77
2023/02/09 00:56:37;;;;;;;1.60;1.50;;;0.80;99.90;;;;;;5054228;28;20201;-76
2023/02/09 00:59:03;;;;;;;3.20;1.73;;;0.80;99.90;;;;;;5054063;28;20779;-76
2023/02/09 01:01:30;;;;;;;0.70;0.70;;;0.70;99.90;;;;;;5054026;28;20214;-77
2023/02/09 01:03:57;;;;;;;3.72;2.47;;;0.70;99.90;;;;;;5053912;28;20288;-75
2023/02/09 01:06:24;;;;;;;0.50;0.50;;;0.70;99.90;;;;;;5054077;28;20201;-76
2023/02/09 01:08:51;;;;;;;1.02;1.00;;;0.80;99.90;;;;;;5053425;28;20225;-76
2023/02/09 01:11:18;;;;;;;0.50;0.50;;;0.80;99.90;;;;;;5053987;28;20186;-76
2023/02/09 01:13:47;;;;;;;1.15;0.77;;;0.80;99.90;;;;;;5053777;28;20282;-76
2023/02/09 01:16:16;;;;;;;1.45;1.35;;;0.80;99.90;;;;;;5054423;28;20199;-76
2023/02/09 01:18:43;;;;;;;1.95;1.45;;;0.70;99.90;;;;;;5054700;28;20704;-77
2023/02/09 01:21:11;;;;;;;2.88;2.65;;;0.70;99.90;;;;;;5054709;28;20218;-76
2023/02/09 01:23:39;;;;;;;2.58;2.38;;;0.80;99.90;;;;;;5053850;28;20297;-76
2023/02/09 01:26:07;;;;;;;10.85;3.17;;;0.80;99.90;;;;;;5053768;28;20191;-76
2023/02/09 01:28:34;;;;;;;5.18;3.90;;;0.80;99.90;;;;;;5053870;28;20882;-76
2023/02/09 01:31:03;;;;;;;0.75;0.75;;;0.80;99.90;;;;;;5053920;28;20290;-77
2023/02/09 01:33:31;;;;;;;0.60;0.60;;;0.80;99.90;;;;;;5054106;28;20545;-76
2023/02/09 01:35:58;;;;;;;1.95;1.30;;;0.80;99.90;;;;;;5052855;28;20281;-76
2023/02/09 01:38:25;;;;;;;0.50;0.50;;;0.80;99.90;;;;;;5053232;28;20225;-76
2023/02/09 01:40:52;;;;;;;1.25;1.25;;;0.70;99.90;;;;;;5053525;28;20242;-75
2023/02/09 01:43:19;;;;;;;1.73;1.63;;;0.70;99.90;;;;;;5053422;28;20201;-76
2023/02/09 01:45:48;;;;;;;2.10;1.88;;;0.80;99.90;;;;;;5053473;28;20285;-75
2023/02/09 01:48:19;;;;;;;2.65;2.05;;;0.80;99.90;;;;;;5053815;28;20588;-77
2023/02/09 01:50:49;;;;;;;3.05;2.38;;;0.70;99.90;;;;;;5053552;28;20193;-76
2023/02/09 01:53:17;;;;;;;0.50;0.50;;;0.70;99.90;;;;;;5052774;28;20191;-76
2023/02/09 01:55:48;;;;;;;5.95;2.67;;;0.70;99.90;;;;;;5052707;28;20285;-77
2023/02/09 01:58:18;;;;;;;0.50;0.50;;;0.70;99.90;;;;;;5052409;28;20703;-76
2023/02/09 02:00:45;;;;;;;1.27;0.80;;;0.70;99.90;;;;;;5052962;28;20249;-76
2023/02/09 02:03:18;;;;;;;2.35;1.38;;;0.70;99.90;;;;;;5053011;28;20209;-75
2023/02/09 02:05:48;;;;;;;0.80;0.80;;;0.70;99.90;;;;;;5053030;28;20226;-76
2023/02/09 02:08:20;;;;;;;5.65;3.10;;;0.70;99.90;;;;;;5052527;28;20227;-76
2023/02/09 02:10:47;;;;;;;0.60;0.60;;;0.60;99.90;;;;;;5101916;22;20225;-78
2023/02/09 02:13:14;;;;;;;12.52;2.22;;;0.60;99.90;;;;;;5056683;28;20652;-79
2023/02/09 02:15:53;;;;;;;15.30;2.30;;;0.60;99.90;;;;;;5059533;28;20186;-78
2023/02/09 02:18:31;;;;;;;0.70;0.70;;;0.60;99.90;;;;;;5059564;28;20215;-78
2023/02/09 02:21:44;;;;;;;3.35;1.85;;;0.60;99.90;;;;;;5059758;28;20268;-77
2023/02/09 02:24:35;;;;;;;2.92;2.75;;;0.50;99.90;;;;;;5059412;28;20195;-75
2023/02/09 02:27:05;;;;;;;4.63;3.72;;;0.50;99.90;;;;;;5059329;28;20191;-78
2023/02/09 02:30:02;;;;;;;7.80;3.92;;;0.50;99.90;;;;;;5059099;28;20210;-78
2023/02/09 02:32:52;;;;;;;2.38;1.77;;;0.50;99.90;;;;;;5059165;28;20187;-78
2023/02/09 02:35:25;;;;;;;5.75;1.00;;;0.40;99.90;;;;;;5045818;28;20306;-77
2023/02/09 02:37:59;;;;;;;3.72;2.63;;;0.40;99.90;;;;;;5059748;28;20269;-79
2023/02/09 02:40:40;;;;;;;0.50;0.50;;;0.40;99.90;;;;;;5059455;28;20218;-78
2023/02/09 02:43:13;;;;;;;1.45;1.35;;;0.40;99.90;;;;;;5059373;28;20217;-78
2023/02/09 02:45:47;;;;;;;0.50;0.40;;;0.30;99.90;;;;;;5059128;28;20234;-78
2023/02/09 02:48:24;;;;;;;3.17;3.00;;;0.20;99.90;;;;;;5059087;28;20289;-79
2023/02/09 02:50:55;;;;;;;0.95;0.95;;;0.20;99.90;;;;;;5059377;28;20218;-78
2023/02/09 02:53:27;;;;;;;0.70;0.70;;;0.20;99.90;;;;;;5059545;28;20732;-79
2023/02/09 02:55:58;;;;;;;2.05;1.65;;;0.10;99.90;;;;;;5057552;28;20205;-78
2023/02/09 02:58:27;;;;;;;1.15;1.05;;;0.20;99.90;;;;;;5056795;28;20752;-79
2023/02/09 03:00:58;;;;;;;2.88;2.60;;;0.20;99.90;;;;;;5056399;28;20539;-78
2023/02/09 03:03:31;;;;;;;4.00;3.40;;;0.10;99.90;;;;;;5057577;28;20289;-78
2023/02/09 03:06:01;;;;;;;2.47;2.10;;;0.10;99.90;;;;;;5057897;28;20175;-79
2023/02/09 03:08:28;;;;;;;0.60;0.60;;;0.10;99.90;;;;;;5057079;28;20699;-79
2023/02/09 03:10:55;;;;;;;3.08;1.75;;;0.10;99.90;;;;;;5057913;28;20664;-78
2023/02/09 03:13:37;;;;;;;0.90;0.90;;;0.10;99.90;;;;;;5057237;28;20190;-80
2023/02/09 03:16:15;;;;;;;2.05;1.95;;;0.10;99.90;;;;;;5057372;28;20196;-78
2023/02/09 03:18:56;;;;;;;2.35;2.25;;;0.10;99.90;;;;;;5061549;28;20625;-78
2023/02/09 03:21:34;;;;;;;2.90;1.83;;;0.00;99.90;;;;;;5060926;28;20210;-78
2023/02/09 03:24:04;;;;;;;3.63;1.38;;;0.00;99.90;;;;;;5061306;28;20186;-79
2023/02/09 03:26:37;;;;;;;2.67;2.47;;;0.00;99.90;;;;;;5061833;28;20619;-79
2023/02/09 03:29:05;;;;;;;3.97;3.00;;;0.00;99.90;;;;;;5063353;28;20277;-78
2023/02/09 03:31:32;;;;;;;6.18;2.72;;;0.00;99.90;;;;;;5062903;28;20201;-79
2023/02/09 03:34:01;;;;;;;2.95;2.75;;;-0.10;99.90;;;;;;5062408;28;20262;-79
2023/02/09 03:36:33;;;;;;;14.65;3.30;;;-0.10;99.90;;;;;;5062608;28;20226;-78
2023/02/09 03:39:00;;;;;;;2.17;1.98;;;-0.10;99.90;;;;;;5061984;28;20214;-79
2023/02/09 03:41:27;;;;;;;3.95;1.77;;;-0.10;99.90;;;;;;5062145;28;20269;-80
2023/02/09 03:46:39;;;;;;;0.50;0.50;;;-0.10;99.90;;;;;;5061410;28;20619;-79
2023/02/09 03:49:07;;;;;;;5.30;4.90;;;-0.10;99.90;;;;;;5059654;28;20693;-78
2023/02/09 03:51:34;;;;;;;4.90;3.50;;;-0.20;99.90;;;;;;5060471;28;20631;-79
2023/02/09 03:54:01;;;;;;;1.75;1.67;;;-0.20;99.90;;;;;;5062990;28;20230;-78
2023/02/09 03:56:27;;;;;;;8.23;1.35;;;-0.20;99.90;;;;;;5062316;28;20262;-79
2023/02/09 03:58:54;;;;;;;1.95;1.85;;;-0.20;99.90;;;;;;5061783;28;20281;-79
2023/02/09 04:01:21;;;;;;;5.65;2.05;;;-0.30;99.90;;;;;;5061182;28;20692;-78
2023/02/09 04:03:48;;;;;;;2.75;2.00;;;-0.20;99.90;;;;;;5061211;28;20218;-78
2023/02/09 04:06:17;;;;;;;2.75;2.55;;;-0.20;99.90;;;;;;5060374;28;20624;-76
2023/02/09 04:08:43;;;;;;;4.65;3.17;;;-0.20;99.90;;;;;;5064172;28;20229;-79
2023/02/09 04:11:10;;;;;;;4.30;2.95;;;-0.30;99.90;;;;;;5064276;28;20777;-78
2023/02/09 04:13:37;;;;;;;1.52;1.42;;;-0.30;99.90;;;;;;5065491;28;20245;-78
2023/02/09 04:16:05;;;;;;;1.55;1.55;;;-0.30;99.90;;;;;;5061499;28;20230;-78
2023/02/09 04:18:31;;;;;;;5.65;1.60;;;-0.30;99.90;;;;;;5058891;28;20282;-78
2023/02/09 04:20:58;;;;;;;2.67;2.47;;;-0.30;99.90;;;;;;5058653;28;20214;-78
2023/02/09 04:23:27;;;;;;;0.75;0.75;;;-0.30;99.90;;;;;;5059318;28;20258;-78
2023/02/09 04:25:53;;;;;;;3.45;1.30;;;-0.30;99.90;;;;;;5058207;28;20202;-79
2023/02/09 04:28:20;;;;;;;2.53;1.20;;;-0.30;99.90;;;;;;5060017;28;20265;-78
2023/02/09 04:30:52;;;;;;;3.40;3.17;;;-0.40;99.90;;;;;;5061501;28;20250;-79
2023/02/09 04:33:19;;;;;;;3.40;3.05;;;-0.30;99.90;;;;;;5062654;28;20171;-79
2023/02/09 04:35:47;;;;;;;0.88;0.70;;;-0.40;99.90;;;;;;5061696;28;20221;-79
2023/02/09 04:38:14;;;;;;;0.85;0.85;;;-0.40;99.90;;;;;;5062505;28;20244;-79
2023/02/09 04:40:43;;;;;;;1.15;0.60;;;-0.40;99.90;;;;;;5061890;28;20214;-79
2023/02/09 04:43:10;;;;;;;0.98;0.98;;;-0.40;99.90;;;;;;5062403;28;20222;-79
2023/02/09 04:45:38;;;;;;;1.27;1.17;;;-0.40;99.90;;;;;;5062022;28;20198;-78
2023/02/09 04:48:05;;;;;;;1.45;1.35;;;-0.40;99.90;;;;;;5060570;28;20236;-78
2023/02/09 04:50:32;;;;;;;0.65;0.65;;;-0.40;99.90;;;;;;5059102;28;20308;-78
2023/02/09 04:52:59;;;;;;;1.55;1.25;;;-0.40;99.90;;;;;;5060708;28;20615;-79
2023/02/09 04:55:26;;;;;;;1.33;1.15;;;-0.40;99.90;;;;;;5060987;28;20217;-79
2023/02/09 05:00:38;;;;;;;1.80;1.70;;;-0.50;99.90;;;;;;5067714;28;20295;-80
2023/02/09 05:03:05;;;;;;;6.50;2.47;;;-0.50;99.90;;;;;;5068425;28;20238;-79
2023/02/09 05:05:32;;;;;;;6.95;1.58;;;-0.50;99.90;;;;;;5065712;28;20199;-77
2023/02/09 05:07:59;;;;;;;5.70;2.90;;;-0.50;99.90;;;;;;5065546;28;20653;-78
2023/02/09 05:10:26;;;;;;;1.00;0.90;;;-0.50;99.90;;;;;;5065227;28;20305;-79
2023/02/09 05:12:54;;;;;;;11.13;3.38;;;-0.50;99.90;;;;;;5067188;28;20194;-78
2023/02/09 05:15:21;;;;;;;0.90;0.90;;;-0.50;99.90;;;;;;5061995;28;20285;-80
2023/02/09 05:17:48;;;;;;;3.15;2.95;;;-0.50;99.90;;;;;;5061139;28;20265;-78
2023/02/09 05:20:15;;;;;;;1.25;1.25;;;-0.50;99.90;;;;;;5061824;28;20305;-78
2023/02/09 05:22:42;;;;;;;1.88;1.77;;;-0.50;99.90;;;;;;5062792;28;20256;-79
2023/02/09 05:25:09;;;;;;;1.83;1.73;;;-0.50;99.90;;;;;;5065110;28;20198;-79
2023/02/09 05:27:36;;;;;;;1.65;1.52;;;-0.50;99.90;;;;;;5064986;28;20191;-79
2023/02/09 05:30:05;;;;;;;0.50;0.50;;;-0.60;99.90;;;;;;5067905;28;20274;-80
2023/02/09 05:32:32;;;;;;;0.70;0.70;;;-0.60;99.90;;;;;;5072362;28;20195;-79
2023/02/09 05:34:58;;;;;;;11.32;1.10;;;-0.60;99.90;;;;;;5072019;28;20264;-79
2023/02/09 05:37:25;;;;;;;2.75;2.65;;;-0.70;99.90;;;;;;5071891;28;20193;-80
2023/02/09 05:39:52;;;;;;;2.75;2.55;;;-0.70;99.90;;;;;;5070795;28;20225;-79
2023/02/09 05:42:19;;;;;;;2.08;1.90;;;-0.80;99.90;;;;;;5070384;28;20211;-79
2023/02/09 05:44:48;;;;;;;0.50;0.50;;;-0.80;99.90;;;;;;5064212;28;20226;-79
2023/02/09 05:47:18;;;;;;;2.45;2.03;;;-0.80;99.90;;;;;;5061906;28;20264;-79
2023/02/09 05:49:45;;;;;;;0.68;0.68;;;-0.80;99.90;;;;;;5061653;28;20238;-80
2023/02/09 05:52:13;;;;;;;0.98;0.88;;;-0.80;99.90;;;;;;5061113;28;20255;-79
2023/02/09 05:54:40;;;;;;;3.10;2.70;;;-0.80;99.90;;;;;;5060964;28;20261;-80
2023/02/09 05:57:07;;;;;;;1.17;1.08;;;-0.80;99.90;;;;;;5060322;28;20232;-79
2023/02/09 05:59:34;;;;;;;3.20;2.92;;;-0.80;99.90;;;;;;5060345;28;20300;-78
2023/02/09 06:02:02;;;;;;;4.47;3.30;;;-0.80;99.90;;;;;;5059657;28;20285;-80
2023/02/09 06:04:31;;;;;;;0.80;0.80;;;-0.80;99.90;;;;;;5061201;28;20560;-79
2023/02/09 06:06:58;;;;;;;3.22;2.85;;;-0.80;99.90;;;;;;5061907;28;20261;-79
2023/02/09 06:09:25;;;;;;;2.55;0.85;;;-0.80;99.90;;;;;;5062793;28;20861;-80
2023/02/09 06:11:52;;;;;;;3.53;3.22;;;-0.80;99.90;;;;;;5062393;28;20178;-80
2023/02/09 06:14:20;;;;;;;0.77;0.77;;;-0.70;99.90;;;;;;5059988;28;20715;-79
2023/02/09 06:16:47;;;;;;;4.28;4.00;;;-0.80;99.90;;;;;;5061152;28;20245;-80
2023/02/09 06:19:15;;;;;;;1.70;1.60;;;-0.80;99.90;;;;;;5061262;28;20261;-78
2023/02/09 06:21:44;;;;;;;4.30;4.03;;;-0.80;99.90;;;;;;5061230;28;20261;-81
2023/02/09 06:24:12;;;;;;;3.08;2.35;;;-0.80;99.90;;;;;;5061019;28;20660;-80
2023/02/09 06:26:39;;;;;;;3.50;2.22;;;-0.80;99.90;;;;;;5061387;28;20226;-80
2023/02/09 06:29:06;;;;;;;0.60;0.60;;;-0.80;99.90;;;;;;5061480;28;20195;-77
2023/02/09 06:31:33;;;;;;;5.22;2.13;;;-0.80;99.90;;;;;;5060716;28;20210;-79
2023/02/09 06:34:00;;;;;;;0.98;0.98;;;-0.80;99.90;;;;;;5060791;28;20251;-80
2023/02/09 06:36:27;;;;;;;1.05;1.05;;;-0.80;99.90;;;;;;5060751;28;20691;-79
2023/02/09 06:38:56;;;;;;;6.68;3.78;;;-0.80;99.90;;;;;;5061581;28;20266;-81
2023/02/09 06:41:22;;;;;;;1.48;1.38;;;-0.90;99.90;;;;;;5061013;28;20264;-80
2023/02/09 06:43:49;;;;;;;1.15;1.15;;;-0.90;99.90;;;;;;5059837;28;20275;-81
2023/02/09 06:46:16;;;;;;;4.80;3.45;;;-0.80;99.90;;;;;;5059436;28;20660;-76
2023/02/09 06:48:43;;;;;;;5.13;3.95;;;-0.80;99.90;;;;;;5058836;28;20262;-80
2023/02/09 06:51:11;;;;;;;3.75;2.83;;;-0.80;99.90;;;;;;5056725;28;20242;-77
2023/02/09 06:53:38;;;;;;;0.60;0.60;;;-0.70;99.90;;;;;;5058781;28;20191;-79
2023/02/09 06:56:07;;;;;;;11.35;3.80;;;-0.70;99.90;;;;;;5059255;28;20731;-80
2023/02/09 06:58:35;;;;;;;8.07;4.57;;;-0.80;99.90;;;;;;5059430;28;20194;-84
2023/02/09 07:01:03;;;;;;;5.80;2.72;;;-0.80;99.90;;;;;;5058502;28;20229;-81
2023/02/09 07:03:30;;;;;;;4.65;2.35;;;-0.80;99.90;;;;;;5058759;28;20234;-82
2023/02/09 07:06:03;;;;;;;8.32;2.25;;;-0.80;99.90;;;;;;5059229;28;20206;-81
2023/02/09 07:08:30;;;;;;;2.10;2.00;;;-0.80;99.90;;;;;;5059382;28;20201;-80
2023/02/09 07:10:56;;;;;;;5.22;4.15;;;-0.70;99.90;;;;;;5058725;28;20233;-81
2023/02/09 07:13:25;;;;;;;1.55;1.05;;;-0.70;99.90;;;;;;5058678;28;20190;-81
2023/02/09 07:15:55;;;;;;;1.20;1.10;;;-0.70;99.90;;;;;;5059740;28;20206;-81
2023/02/09 07:18:22;;;;;;;2.05;1.20;;;-0.70;99.90;;;;;;5058927;28;20647;-81
2023/02/09 07:20:54;;;;;;;2.88;2.00;;;-0.70;99.90;;;;;;5061211;28;20283;-82
2023/02/09 07:23:21;;;;;;;2.15;1.60;;;-0.60;99.90;;;;;;5060624;28;20222;-82
2023/02/09 07:25:48;;;;;;;0.50;0.50;;;-0.60;99.90;;;;;;5059955;28;20707;-81
2023/02/09 07:28:14;;;;;;;3.75;2.70;;;-0.50;99.90;;;;;;5059931;28;20254;-81
2023/02/09 07:30:43;;;;;;;2.60;2.25;;;-0.40;99.90;;;;;;5061436;28;20286;-81
2023/02/09 07:33:10;;;;;;;1.67;1.40;;;-0.40;99.90;;;;;;5059718;28;20190;-80
2023/02/09 07:35:39;;;;;;;4.00;3.38;;;-0.30;99.90;;;;;;5059293;28;20233;-82
2023/02/09 07:38:06;;;;;;;3.75;3.45;;;-0.30;99.90;;;;;;5061909;28;20203;-83
2023/02/09 07:40:33;;;;;;;3.97;2.53;;;-0.10;99.90;;;;;;5059746;28;20284;-81
2023/02/09 07:43:00;;;;;;;4.13;3.83;;;0.00;99.90;;;;;;5058877;28;20252;-81
2023/02/09 07:45:27;;;;;;;1.65;1.30;;;0.10;99.90;;;;;;5059522;28;20614;-81
2023/02/09 07:47:55;;;;;;;0.60;0.60;;;0.50;99.90;;;;;;5058853;28;20193;-81
2023/02/09 07:50:22;;;;;;;6.03;3.80;;;1.10;99.90;;;;;;5061047;28;20227;-80
2023/02/09 07:52:52;;;;;;;0.50;0.47;;;1.60;99.90;;;;;;5058936;28;20214;-80
2023/02/09 07:55:19;;;;;;;0.60;0.60;;;2.30;99.90;;;;;;5059168;28;20258;-81
2023/02/09 07:57:45;;;;;;;3.50;3.25;;;3.00;99.90;;;;;;5060250;28;20191;-83
2023/02/09 08:00:14;;;;;;;0.85;0.85;;;3.30;99.90;;;;;;5059321;28;20237;-82
2023/02/09 08:02:40;;;;;;;2.58;2.38;;;3.40;99.90;;;;;;5060668;28;20726;-81
2023/02/09 08:05:15;;;;;;;2.17;1.92;;;3.70;99.90;;;;;;5064018;28;20198;-82
2023/02/09 08:07:42;;;;;;;1.67;1.08;;;4.00;99.50;;;;;;5063442;28;20198;-81
2023/02/09 08:10:09;;;;;;;1.60;1.50;;;4.30;96.80;;;;;;5064178;28;20238;-80
2023/02/09 08:15:22;;;;;;;6.32;3.67;;;4.40;92.70;;;;;;5061030;28;20213;-82
2023/02/09 08:17:52;;;;;;;8.38;1.65;;;4.20;93.00;;;;;;5062958;28;20195;-81
2023/02/09 08:20:25;;;;;;;3.65;3.35;;;4.00;94.90;;;;;;5062880;28;20246;-81
2023/02/09 08:22:54;;;;;;;3.13;2.78;;;4.30;93.00;;;;;;5064183;28;20195;-82
2023/02/09 08:25:23;;;;;;;3.05;2.75;;;4.30;93.30;;;;;;5062885;28;20214;-80
2023/02/09 08:27:51;;;;;;;0.88;0.88;;;4.50;92.70;;;;;;5062346;28;20214;-80
2023/02/09 08:30:19;;;;;;;4.07;3.75;;;4.60;92.00;;;;;;5062406;28;20242;-80
2023/02/09 08:32:46;;;;;;;3.50;2.85;;;4.60;90.40;;;;;;5063037;28;20270;-80
2023/02/09 08:35:12;;;;;;;4.43;3.05;;;4.80;89.00;;;;;;5060239;28;20201;-81
2023/02/09 08:37:41;;;;;;;4.30;0.77;;;4.80;89.20;;;;;;5062730;28;20277;-81
2023/02/09 08:40:08;;;;;;;1.48;1.38;;;4.90;87.40;;;;;;5045645;28;20273;-78
2023/02/09 08:42:35;;;;;;;6.75;5.30;;;5.00;86.30;;;;;;5061853;28;20261;-81
2023/02/09 08:45:02;;;;;;;1.45;1.35;;;4.90;85.20;;;;;;5061277;28;20194;-81
2023/02/09 08:47:29;;;;;;;1.35;1.25;;;5.20;85.10;;;;;;5062938;28;20222;-80
2023/02/09 08:49:56;;;;;;;0.55;0.55;;;6.00;84.00;;;;;;5061361;28;20223;-80
2023/02/09 08:52:23;;;;;;;2.28;2.17;;;6.80;81.40;;;;;;5058920;28;20615;-82
2023/02/09 08:54:52;;;;;;;0.50;0.40;;;7.30;76.40;;;;;;5059892;28;20218;-81
2023/02/09 08:57:18;;;;;;;6.80;3.60;;;7.60;74.10;;;;;;5060158;28;20230;-78
2023/02/09 08:59:45;;;;;;;2.10;1.85;;;8.00;71.40;;;;;;5060084;28;20222;-82
2023/02/09 09:02:12;;;;;;;8.95;5.28;;;7.60;69.80;;;;;;5060640;28;20729;-77
2023/02/09 09:04:39;;;;;;;0.50;0.43;;;7.10;69.70;;;;;;5060803;28;20310;-80
2023/02/09 09:07:06;;;;;;;9.18;1.95;;;6.90;70.30;;;;;;5059598;28;20652;-82
2023/02/09 09:09:33;;;;;;;1.50;1.40;;;7.50;71.20;;;;;;5060779;28;20318;-82
2023/02/09 09:12:01;;;;;;;1.50;1.38;;;8.50;69.80;;;;;;5058745;28;20263;-81
2023/02/09 09:14:28;;;;;;;1.13;1.13;;;9.30;66.20;;;;;;5060104;28;20353;-81
2023/02/09 09:16:57;;;;;;;1.80;1.70;;;9.20;63.40;;;;;;5062281;28;20204;-81
2023/02/09 09:19:24;;;;;;;3.33;1.40;;;9.20;63.30;;;;;;5061115;28;20226;-80
2023/02/09 09:21:51;;;;;;;5.85;4.72;;;8.80;63.00;;;;;;5059594;28;20190;-80
2023/02/09 09:24:18;;;;;;;1.58;1.52;;;8.00;62.30;;;;;;5059936;28;20221;-81
2023/02/09 09:26:45;;;;;;;2.60;2.40;;;7.80;64.90;;;;;;5059659;28;20194;-82
2023/02/09 09:29:13;;;;;;;1.85;1.70;;;7.90;64.50;;;;;;5060194;28;20198;-81
2023/02/09 09:31:41;;;;;;;2.15;1.25;;;7.80;64.50;;;;;;5058732;28;20289;-81
2023/02/09 09:34:08;;;;;;;0.65;0.65;;;7.40;65.20;;;;;;5059071;28;20295;-82
2023/02/09 09:36:35;;;;;;;2.35;1.90;;;6.70;66.10;;;;;;5061444;28;20194;-81
2023/02/09 09:39:01;;;;;;;2.38;2.17;;;6.40;66.90;;;;;;5060120;28;20194;-80
2023/02/09 09:41:33;;;;;;;1.55;1.45;;;6.00;68.30;;;;;;5060358;28;20293;-82
2023/02/09 09:44:01;;;;;;;7.82;4.00;;;6.10;70.00;;;;;;5060487;28;20708;-80
2023/02/09 09:46:36;;;;;;;9.98;3.13;;;6.00;68.80;;;;;;5060603;28;20218;-82
2023/02/09 09:49:04;;;;;;;3.65;2.58;;;5.90;70.00;;;;;;5060119;28;20183;-82
2023/02/09 09:51:37;;;;;;;3.20;2.05;;;6.00;69.80;;;;;;5059138;28;20298;-82
2023/02/09 09:54:07;;;;;;;0.60;0.60;;;5.90;70.70;;;;;;5059568;28;20210;-82
2023/02/09 09:56:34;;;;;;;2.88;2.65;;;5.90;71.10;;;;;;5059076;28;20278;-82
2023/02/09 09:59:02;;;;;;;3.40;2.95;;;6.10;70.40;;;;;;5059359;28;20289;-80
2023/02/09 10:01:32;;;;;;;2.38;2.17;;;6.00;69.10;;;;;;5059667;28;20278;-81
2023/02/09 10:04:02;;;;;;;4.35;3.80;;;5.80;70.00;;;;;;5059542;28;20198;-81
2023/02/09 10:06:31;;;;;;;4.50;2.78;;;5.70;70.90;;;;;;5059341;28;20252;-82
2023/02/09 10:09:02;;;;;;;5.22;2.30;;;5.50;70.70;;;;;;5059202;28;20201;-80
2023/02/09 10:11:35;;;;;;;5.03;3.22;;;5.50;72.30;;;;;;5058069;28;20775;-81
2023/02/09 10:14:02;;;;;;;3.15;2.30;;;5.40;70.80;;;;;;5058097;28;20225;-81
2023/02/09 10:16:33;;;;;;;5.95;2.75;;;5.40;71.50;;;;;;5058490;28;20198;-82
2023/02/09 10:19:01;;;;;;;3.60;2.90;;;5.60;71.90;;;;;;5058201;28;20269;-80
2023/02/09 10:21:30;;;;;;;2.92;2.70;;;5.50;71.10;;;;;;5057443;28;20278;-80
2023/02/09 10:24:12;;;;;;;8.75;4.43;;;5.50;71.60;;;;;;5058255;28;20230;-82
2023/02/09 10:26:41;;;;;;;11.30;4.22;;;5.60;71.30;;;;;;5054612;28;20289;-82
2023/02/09 10:29:22;;;;;;;4.63;2.45;;;5.60;72.10;;;;;;5055761;28;20221;-80
2023/02/09 10:31:54;;;;;;;13.60;6.38;;;5.60;71.20;;;;;;5056825;28;20199;-79
2023/02/09 10:34:27;;;;;;;2.25;2.15;;;5.30;72.10;;;;;;5056950;28;20660;-78
2023/02/09 10:37:04;;;;;;;2.85;2.65;;;5.40;73.00;;;;;;5060964;28;20194;-81
2023/02/09 10:39:35;;;;;;;1.05;0.95;;;5.60;72.10;;;;;;5060736;28;20242;-81
2023/02/09 10:42:17;;;;;;;4.22;3.53;;;5.80;70.90;;;;;;5061780;28;20204;-81
2023/02/09 10:44:48;;;;;;;4.25;3.20;;;5.50;70.70;;;;;;5063199;28;20202;-82
2023/02/09 10:47:28;;;;;;;6.95;3.95;;;5.40;71.40;;;;;;5062509;28;20203;-82
2023/02/09 10:49:59;;;;;;;2.13;1.85;;;5.30;71.50;;;;;;5060208;28;20246;-83
2023/02/09 10:52:32;;;;;;;5.05;1.52;;;5.30;72.30;;;;;;5060881;28;20187;-80
2023/02/09 10:55:02;;;;;;;1.60;1.50;;;5.20;72.40;;;;;;5071261;28;20195;-80
2023/02/09 10:57:31;;;;;;;3.30;3.08;;;5.70;72.80;;;;;;5071135;28;20179;-80
2023/02/09 11:00:00;;;;;;;9.65;3.72;;;5.90;71.70;;;;;;5068326;28;20769;-82
2023/02/09 11:02:41;;;;;;;1.15;0.90;;;6.10;71.40;;;;;;5062568;28;20198;-80
2023/02/09 11:05:33;;;;;;;2.33;2.05;;;6.20;70.30;;;;;;5060076;28;20218;-82
2023/02/09 11:08:10;;;;;;;3.88;3.58;;;6.40;70.00;;;;;;5060870;28;20274;-81
2023/02/09 11:10:42;;;;;;;0.85;0.80;;;6.80;69.30;;;;;;5060141;28;20232;-80
2023/02/09 11:13:19;;;;;;;1.65;0.98;;;7.10;70.20;;;;;;5059091;28;20226;-81
2023/02/09 11:16:05;;;;;;;4.32;1.88;;;7.20;67.10;;;;;;5058757;28;20190;-82
2023/02/09 11:18:34;;;;;;;10.98;4.20;;;7.50;66.80;;;;;;5058579;28;20204;-82
2023/02/09 11:21:09;;;;;;;1.20;1.10;;;8.00;66.80;;;;;;5062517;28;20214;-81
2023/02/09 11:23:47;;;;;;;1.80;1.70;;;8.10;65.40;;;;;;5061652;28;20218;-82
2023/02/09 11:26:25;;;;;;;1.77;1.67;;;8.00;64.20;;;;;;5061265;28;20246;-80
2023/02/09 11:28:57;;;;;;;3.20;2.58;;;8.00;65.10;;;;;;5060847;28;20218;-81
2023/02/09 11:31:49;;;;;;;2.75;2.45;;;7.80;64.20;;;;;;5060655;28;20302;-82
2023/02/09 11:34:39;;;;;;;9.75;4.60;;;7.30;64.20;;;;;;5052837;28;20190;-78
2023/02/09 11:37:19;;;;;;;3.40;2.80;;;6.90;64.80;;;;;;5061182;28;20175;-80
2023/02/09 11:39:53;;;;;;;5.15;4.07;;;6.30;65.90;;;;;;5064874;28;20249;-81
2023/02/09 11:45:13;;;;;;;0.73;0.73;;;6.30;68.10;;;;;;5063678;28;20214;-81
2023/02/09 11:47:51;;;;;;;2.53;1.75;;;6.60;69.10;;;;;;5065935;28;20286;-80
2023/02/09 11:50:28;;;;;;;8.68;3.28;;;6.90;68.50;;;;;;5065751;28;20241;-80
2023/02/09 11:52:59;;;;;;;6.13;2.15;;;7.00;67.00;;;;;;5064616;28;20656;-81
2023/02/09 11:55:29;;;;;;;1.58;1.45;;;6.90;65.70;;;;;;5063771;28;20270;-79
2023/02/09 11:58:06;;;;;;;5.30;4.80;;;6.90;66.50;;;;;;5063760;28;20194;-81
2023/02/09 12:00:40;;;;;;;5.07;3.15;;;6.70;66.10;;;;;;5063977;28;20301;-80
2023/02/09 12:03:11;;;;;;;4.10;3.28;;;6.40;66.70;;;;;;5063436;28;20224;-81
2023/02/09 12:05:42;;;;;;;1.20;1.10;;;6.30;67.20;;;;;;5062630;28;20294;-82
2023/02/09 12:08:26;;;;;;;1.90;1.77;;;6.50;69.70;;;;;;5064556;28;20234;-79
2023/02/09 12:11:06;;;;;;;0.80;0.80;;;6.90;67.80;;;;;;5063923;28;20284;-80
2023/02/09 12:13:45;;;;;;;15.65;5.45;;;6.90;67.60;;;;;;5062303;28;20218;-82
2023/02/09 12:16:16;;;;;;;0.70;0.68;;;6.80;67.40;;;;;;5063378;28;20189;-80
2023/02/09 12:18:44;;;;;;;3.03;2.17;;;6.90;68.50;;;;;;5064031;28;20529;-80
2023/02/09 12:21:13;;;;;;;5.03;3.60;;;7.10;67.50;;;;;;5064785;28;20255;-77
2023/02/09 12:23:41;;;;;;;3.25;2.95;;;6.90;67.80;;;;;;5064160;28;20278;-82
2023/02/09 12:26:40;;;;;;;7.60;3.28;;;6.80;68.40;;;;;;5063983;28;20195;-81
2023/02/09 12:29:33;;;;;;;0.60;0.60;;;6.90;67.90;;;;;;5063539;28;20277;-82
2023/02/09 12:32:26;;;;;;;0.73;0.73;;;7.00;67.70;;;;;;5063744;28;20179;-81
2023/02/09 12:34:55;;;;;;;5.53;2.80;;;6.90;67.70;;;;;;5052866;28;20317;-80
2023/02/09 12:37:28;;;;;;;5.75;3.70;;;6.80;67.80;;;;;;5062798;28;20198;-78
2023/02/09 12:40:21;;;;;;;4.00;2.65;;;6.80;68.10;;;;;;5064797;28;20214;-81
2023/02/09 12:43:12;;;;;;;4.07;2.53;;;6.70;68.30;;;;;;5064527;28;20175;-80
2023/02/09 12:45:40;;;;;;;3.50;2.40;;;6.60;68.30;;;;;;5063800;28;20218;-80
2023/02/09 12:48:16;;;;;;;1.02;1.02;;;6.70;68.70;;;;;;5062652;28;20755;-81
2023/02/09 12:50:50;;;;;;;3.95;3.55;;;7.00;70.50;;;;;;5061669;28;20225;-81
2023/02/09 12:53:47;;;;;;;2.45;2.03;;;7.20;69.00;;;;;;5062599;28;20309;-81
2023/02/09 12:56:32;;;;;;;3.08;2.45;;;7.00;66.60;;;;;;5062387;28;20198;-81
2023/02/09 12:59:23;;;;;;;2.75;2.55;;;6.90;67.50;;;;;;5064656;28;20195;-82
2023/02/09 13:02:23;;;;;;;5.03;3.80;;;7.00;68.20;;;;;;5063607;28;20211;-82
2023/02/09 13:05:03;;;;;;;3.65;2.70;;;6.90;67.90;;;;;;5056871;28;20230;-81
2023/02/09 13:07:40;;;;;;;6.60;4.13;;;6.90;68.90;;;;;;5062418;28;20648;-83
2023/02/09 13:10:23;;;;;;;2.65;1.55;;;6.80;68.40;;;;;;5063351;28;20639;-80
2023/02/09 13:12:56;;;;;;;4.25;3.63;;;6.60;69.10;;;;;;5062971;28;20482;-82
2023/02/09 13:15:29;;;;;;;1.75;1.65;;;6.60;68.80;;;;;;5062023;28;20646;-82
2023/02/09 13:18:07;;;;;;;2.47;2.25;;;6.40;68.90;;;;;;5062850;28;20187;-81
2023/02/09 13:21:02;;;;;;;8.65;3.80;;;6.50;70.00;;;;;;5062989;28;20238;-81
2023/02/09 13:23:34;;;;;;;7.05;2.83;;;6.70;70.00;;;;;;5061422;28;20191;-81
2023/02/09 13:26:16;;;;;;;7.00;6.40;;;6.60;69.90;;;;;;5061637;28;20191;-81
2023/02/09 13:28:43;;;;;;;4.00;2.92;;;6.40;70.70;;;;;;5060365;28;20199;-82